Time;durP1;ratioP1;P1;durP2;ratioP2;P2;SDS_P1;SDS_P2;PMS_P1;PMS_P2;Temp;Humidity;BMP_temperature;BMP_pressure;BME280_temperature;BME280_humidity;BME280_pressure;Samples;Min_cycle;Max_cycle;Signal;HPM_P1;HPM_P2
2022/04/25 00:02:11;;;;;;;;;1.75;1.75;;;;;;;;5163712;27;10249;-65
2022/04/25 00:04:36;;;;;;;;;1.00;1.00;;;;;;;;5163712;27;10133;-65
2022/04/25 00:07:01;;;;;;;;;3.00;3.00;;;;;;;;5163453;27;8906;-65
2022/04/25 00:09:26;;;;;;;;;2.00;2.00;;;;;;;;5163321;27;9707;-65
2022/04/25 00:11:52;;;;;;;;;6.00;3.00;;;;;;;;5163352;27;8800;-65
2022/04/25 00:14:17;;;;;;;;;4.00;3.00;;;;;;;;5162984;27;8956;-65
2022/04/25 00:16:42;;;;;;;;;6.00;5.00;;;;;;;;5163484;27;8784;-64
2022/04/25 00:19:08;;;;;;;;;3.00;3.00;;;;;;;;5163943;27;8896;-65
2022/04/25 00:21:34;;;;;;;;;6.75;3.00;;;;;;;;5163530;27;9065;-65
2022/04/25 00:23:59;;;;;;;;;2.25;1.00;;;;;;;;5163098;27;8800;-64
2022/04/25 00:26:24;;;;;;;;;5.00;2.50;;;;;;;;5163616;27;9655;-65
2022/04/25 00:28:49;;;;;;;;;1.50;1.25;;;;;;;;5163123;27;11302;-64
2022/04/25 00:31:15;;;;;;;;;1.50;1.50;;;;;;;;5144264;27;13275;-64
2022/04/25 00:33:40;;;;;;;;;2.00;2.00;;;;;;;;5163565;27;8880;-64
2022/04/25 00:36:05;;;;;;;;;3.50;2.00;;;;;;;;5162773;27;12747;-64
2022/04/25 00:38:30;;;;;;;;;4.00;2.50;;;;;;;;5163027;27;8941;-64
2022/04/25 00:40:56;;;;;;;;;2.00;2.00;;;;;;;;5162533;27;11459;-65
2022/04/25 00:43:21;;;;;;;;;2.00;2.00;;;;;;;;5162600;27;11332;-65
2022/04/25 00:45:46;;;;;;;;;2.00;2.00;;;;;;;;5162790;27;8887;-65
2022/04/25 00:48:12;;;;;;;;;2.00;2.00;;;;;;;;5163078;27;8788;-66
2022/04/25 00:50:39;;;;;;;;;2.00;2.00;;;;;;;;5162979;27;8780;-65
2022/04/25 00:53:04;;;;;;;;;2.00;2.00;;;;;;;;5144733;27;8815;-65
2022/04/25 00:55:30;;;;;;;;;2.75;2.75;;;;;;;;5163321;27;11387;-64
2022/04/25 00:57:56;;;;;;;;;2.00;1.75;;;;;;;;5162800;27;9456;-66
2022/04/25 01:00:22;;;;;;;;;6.00;1.00;;;;;;;;5162410;27;9522;-66
2022/04/25 01:02:48;;;;;;;;;1.00;1.00;;;;;;;;5161759;27;11648;-65
2022/04/25 01:05:13;;;;;;;;;0.75;0.00;;;;;;;;5163090;27;8800;-65
2022/04/25 01:07:38;;;;;;;;;1.00;1.00;;;;;;;;5162860;27;10264;-65
2022/04/25 01:10:05;;;;;;;;;2.00;2.00;;;;;;;;5162994;27;10847;-65
2022/04/25 01:12:30;;;;;;;;;5.00;1.00;;;;;;;;5162368;27;8776;-64
2022/04/25 01:15:06;;;;;;;;;2.25;2.25;;;;;;;;5161956;27;11399;-64
2022/04/25 01:17:32;;;;;;;;;1.00;1.00;;;;;;;;5161706;27;11375;-65
2022/04/25 01:19:57;;;;;;;;;2.25;2.00;;;;;;;;5162077;27;11508;-64
2022/04/25 01:22:27;;;;;;;;;5.00;1.75;;;;;;;;5143198;27;10680;-64
2022/04/25 01:27:37;;;;;;;;;0.75;0.75;;;;;;;;5161418;27;11372;-64
2022/04/25 01:30:03;;;;;;;;;1.50;1.00;;;;;;;;5161327;27;11453;-65
2022/04/25 01:32:29;;;;;;;;;1.75;1.75;;;;;;;;5162285;27;11376;-64
2022/04/25 01:34:54;;;;;;;;;2.00;0.75;;;;;;;;5162285;27;12141;-65
2022/04/25 01:37:20;;;;;;;;;1.00;1.00;;;;;;;;5162175;27;10262;-65
2022/04/25 01:39:49;;;;;;;;;2.00;1.00;;;;;;;;5143408;27;11639;-65
2022/04/25 01:42:15;;;;;;;;;1.25;1.25;;;;;;;;5143277;27;8796;-65
2022/04/25 01:44:40;;;;;;;;;1.00;1.00;;;;;;;;5161705;27;11700;-64
2022/04/25 01:47:06;;;;;;;;;1.00;1.00;;;;;;;;5161978;27;8798;-64
2022/04/25 01:49:35;;;;;;;;;5.00;2.00;;;;;;;;5143301;27;8776;-64
2022/04/25 09:38:44;;;;;;;;;20.25;17.00;;;;;;;;5076592;27;2627298;-69
2022/04/25 09:41:10;;;;;;;;;13.00;12.50;;;;;;;;5177738;27;22509;-69
2022/04/25 09:43:37;;;;;;;;;14.75;12.25;;;;;;;;5156442;27;14010;-70
2022/04/25 09:46:06;;;;;;;;;12.25;11.75;;;;;;;;5156960;27;11451;-69
2022/04/25 09:48:31;;;;;;;;;15.50;13.75;;;;;;;;5168996;27;12528;-69
2022/04/25 09:51:04;;;;;;;;;17.25;11.75;;;;;;;;5165860;27;11477;-68
2022/04/25 09:53:40;;;;;;;;;15.00;13.00;;;;;;;;5156684;27;11479;-68
2022/04/25 09:56:09;;;;;;;;;11.00;10.25;;;;;;;;5178733;27;12705;-70
2022/04/25 09:58:39;;;;;;;;;16.75;14.00;;;;;;;;5198929;27;11899;-69
2022/04/25 10:01:09;;;;;;;;;9.50;9.00;;;;;;;;5198545;27;11614;-69
2022/04/25 10:03:35;;;;;;;;;11.25;11.25;;;;;;;;5197924;27;23530;-69
2022/04/25 10:06:01;;;;;;;;;14.00;13.50;;;;;;;;5198058;27;22448;-69
2022/04/25 10:08:27;;;;;;;;;17.00;13.00;;;;;;;;5198261;27;11772;-69
2022/04/25 10:10:53;;;;;;;;;8.00;8.00;;;;;;;;5178030;27;11596;-70
2022/04/25 10:13:19;;;;;;;;;16.50;11.50;;;;;;;;5177685;27;22265;-69
2022/04/25 10:15:45;;;;;;;;;15.50;11.50;;;;;;;;5158406;27;22507;-70
2022/04/25 10:18:11;;;;;;;;;21.25;20.50;;;;;;;;5176299;27;8795;-69
2022/04/25 10:20:37;;;;;;;;;20.50;19.50;;;;;;;;5176576;27;13755;-68
2022/04/25 10:23:04;;;;;;;;;18.50;18.00;;;;;;;;5172609;27;11903;-69
2022/04/25 10:25:30;;;;;;;;;19.75;15.75;;;;;;;;5174695;27;13378;-69
2022/04/25 10:27:56;;;;;;;;;11.00;10.00;;;;;;;;5164741;27;11675;-70
2022/04/25 10:30:27;;;;;;;;;14.25;12.50;;;;;;;;5155334;27;11496;-70
2022/04/25 10:33:10;;;;;;;;;11.00;11.00;;;;;;;;5165509;27;12887;-72
2022/04/25 10:35:36;;;;;;;;;12.25;12.00;;;;;;;;5176561;27;11677;-69
2022/04/25 10:38:01;;;;;;;;;8.00;8.00;;;;;;;;5183081;27;11473;-69
2022/04/25 10:46:13;;;;;;;;;11.50;11.50;;;;;;;;5177541;27;12393;-70
2022/04/25 10:49:16;;;;;;;;;13.00;8.00;;;;;;;;5170541;27;11566;-72
2022/04/25 10:51:42;;;;;;;;;12.75;10.00;;;;;;;;5096204;28;22668;-70
2022/04/25 10:54:08;;;;;;;;;16.50;12.00;;;;;;;;5100656;28;21416;-73
2022/04/25 10:56:35;;;;;;;;;14.00;10.75;;;;;;;;5106266;28;10832;-73
2022/04/25 10:59:19;;;;;;;;;11.75;11.75;;;;;;;;5118680;28;11648;-70
2022/04/25 11:01:45;;;;;;;;;12.00;10.25;;;;;;;;5098992;28;11465;-73
2022/04/25 11:04:13;;;;;;;;;11.75;10.50;;;;;;;;5159504;27;11544;-70
2022/04/25 11:06:38;;;;;;;;;10.25;9.00;;;;;;;;5162813;27;13046;-71
2022/04/25 11:09:04;;;;;;;;;11.00;9.25;;;;;;;;5142704;27;22947;-70
2022/04/25 11:11:46;;;;;;;;;7.75;7.75;;;;;;;;5162349;27;10633;-69
2022/04/25 11:14:12;;;;;;;;;6.00;6.00;;;;;;;;5143717;27;24849;-69
2022/04/25 11:16:39;;;;;;;;;8.25;7.75;;;;;;;;5162581;27;12573;-70
2022/04/25 11:19:09;;;;;;;;;9.00;7.50;;;;;;;;5161926;27;11534;-69
2022/04/25 11:21:34;;;;;;;;;9.50;9.00;;;;;;;;5161960;27;11366;-70
2022/04/25 11:24:01;;;;;;;;;7.25;7.25;;;;;;;;5162279;27;11354;-69
2022/04/25 11:26:26;;;;;;;;;8.25;6.00;;;;;;;;5162896;27;11463;-70
2022/04/25 11:29:01;;;;;;;;;9.50;7.25;;;;;;;;5162592;27;11595;-69
2022/04/25 11:31:27;;;;;;;;;7.00;6.00;;;;;;;;5162923;27;11357;-69
2022/04/25 11:33:53;;;;;;;;;8.00;7.00;;;;;;;;5162245;27;11590;-70
2022/04/25 11:36:19;;;;;;;;;6.75;6.75;;;;;;;;5162031;27;11308;-70
2022/04/25 11:41:34;;;;;;;;;9.75;9.00;;;;;;;;5162516;27;11279;-69
2022/04/25 11:43:59;;;;;;;;;9.00;6.50;;;;;;;;5162071;27;11477;-69
2022/04/25 11:46:25;;;;;;;;;9.25;7.50;;;;;;;;5162170;27;11499;-69
2022/04/25 11:48:51;;;;;;;;;6.75;5.75;;;;;;;;5162669;27;9581;-69
2022/04/25 11:51:23;;;;;;;;;7.25;7.25;;;;;;;;5162567;27;11833;-70
2022/04/25 11:53:50;;;;;;;;;7.00;7.00;;;;;;;;5161459;27;11330;-70
2022/04/25 11:56:16;;;;;;;;;9.75;6.00;;;;;;;;5162244;27;11325;-70
2022/04/25 11:58:42;;;;;;;;;11.75;8.25;;;;;;;;5161919;27;11443;-69
2022/04/25 12:01:10;;;;;;;;;4.25;3.00;;;;;;;;5160365;27;21636;-69
2022/04/25 12:03:36;;;;;;;;;6.25;4.75;;;;;;;;5143021;27;21813;-69
2022/04/25 12:06:12;;;;;;;;;6.50;6.00;;;;;;;;5161766;27;11395;-69
2022/04/25 12:16:49;;;;;;;;;7.00;7.00;;;;;;;;5162301;27;11340;-69
2022/04/25 12:19:14;;;;;;;;;8.00;8.00;;;;;;;;5162236;27;11444;-70
2022/04/25 12:21:47;;;;;;;;;8.50;8.50;;;;;;;;5162350;27;8780;-69
2022/04/25 12:24:19;;;;;;;;;6.50;6.00;;;;;;;;5142916;27;10815;-69
2022/04/25 12:26:44;;;;;;;;;9.50;9.50;;;;;;;;5162088;27;11630;-69
2022/04/25 12:29:12;;;;;;;;;7.25;7.25;;;;;;;;5162004;27;11834;-70
2022/04/25 12:31:45;;;;;;;;;4.00;4.00;;;;;;;;5161586;27;11642;-70
2022/04/25 12:34:12;;;;;;;;;9.25;7.00;;;;;;;;5161624;27;11400;-69
2022/04/25 12:36:39;;;;;;;;;8.75;7.00;;;;;;;;5160869;27;11467;-69
2022/04/25 12:39:13;;;;;;;;;8.00;6.00;;;;;;;;5160647;27;11458;-69
2022/04/25 12:41:40;;;;;;;;;6.50;6.00;;;;;;;;5160991;27;11372;-70
2022/04/25 12:44:11;;;;;;;;;5.00;5.00;;;;;;;;5161612;27;11337;-70
2022/04/25 12:46:43;;;;;;;;;6.00;6.00;;;;;;;;5161452;27;11364;-69
2022/04/25 12:49:12;;;;;;;;;6.00;6.00;;;;;;;;5160749;27;11308;-70
2022/04/25 12:51:39;;;;;;;;;9.75;8.25;;;;;;;;5161452;27;11315;-70
2022/04/25 12:54:23;;;;;;;;;8.75;7.00;;;;;;;;5161339;27;11646;-70
2022/04/25 12:56:50;;;;;;;;;7.25;7.00;;;;;;;;5141742;27;13316;-70
2022/04/25 12:59:28;;;;;;;;;10.25;9.75;;;;;;;;5161539;27;11329;-70
2022/04/25 13:01:57;;;;;;;;;25.75;25.00;;;;;;;;5141532;27;23567;-71
2022/04/25 13:04:23;;;;;;;;;12.25;10.75;;;;;;;;5160528;27;23208;-69
2022/04/25 13:06:48;;;;;;;;;12.50;6.75;;;;;;;;5160528;27;14324;-69
2022/04/25 13:09:14;;;;;;;;;9.50;8.25;;;;;;;;5160697;27;23006;-69
2022/04/25 13:11:39;;;;;;;;;11.00;10.00;;;;;;;;5141474;27;23469;-73
2022/04/25 13:14:05;;;;;;;;;9.75;9.75;;;;;;;;5142258;27;23021;-74
2022/04/25 13:16:30;;;;;;;;;5.00;5.00;;;;;;;;5161617;27;22725;-75
2022/04/25 13:18:56;;;;;;;;;11.25;6.50;;;;;;;;5161575;27;11875;-72
2022/04/25 13:21:22;;;;;;;;;7.50;7.50;;;;;;;;5161750;27;21469;-68
2022/04/25 13:23:49;;;;;;;;;5.50;5.50;;;;;;;;5161592;27;21438;-69
2022/04/25 13:26:14;;;;;;;;;10.00;10.00;;;;;;;;5115556;27;9290;-68
2022/04/25 13:28:40;;;;;;;;;8.50;8.00;;;;;;;;5118954;28;23308;-69
2022/04/25 13:31:05;;;;;;;;;10.00;10.00;;;;;;;;5119215;28;22244;-70
2022/04/25 13:33:30;;;;;;;;;6.75;5.25;;;;;;;;5119249;28;22529;-68
2022/04/25 13:35:56;;;;;;;;;5.75;5.75;;;;;;;;5119141;28;23925;-68
2022/04/25 13:38:21;;;;;;;;;11.00;8.25;;;;;;;;5118982;27;10380;-67
2022/04/25 13:40:47;;;;;;;;;7.50;7.25;;;;;;;;5127215;27;22199;-68
2022/04/25 13:43:14;;;;;;;;;5.50;5.50;;;;;;;;5128612;27;21404;-67
2022/04/25 13:45:40;;;;;;;;;4.50;4.50;;;;;;;;5127765;27;13623;-67
2022/04/25 13:48:06;;;;;;;;;9.75;8.00;;;;;;;;5127483;27;11416;-68
2022/04/25 13:50:31;;;;;;;;;9.00;9.00;;;;;;;;5127649;27;11615;-68
2022/04/25 13:52:57;;;;;;;;;9.25;6.25;;;;;;;;5128238;27;11377;-68
2022/04/25 13:55:22;;;;;;;;;5.00;5.00;;;;;;;;5126298;27;10287;-68
2022/04/25 13:57:48;;;;;;;;;5.50;5.50;;;;;;;;5126776;27;14384;-68
2022/04/25 14:00:13;;;;;;;;;9.25;9.25;;;;;;;;5128565;27;8815;-68
2022/04/25 14:05:23;;;;;;;;;9.50;5.50;;;;;;;;5128975;27;8775;-68
2022/04/25 14:07:49;;;;;;;;;8.50;5.75;;;;;;;;5126914;27;12231;-68
2022/04/25 14:10:14;;;;;;;;;5.25;5.25;;;;;;;;5127566;27;12757;-68
2022/04/25 14:12:40;;;;;;;;;6.50;5.25;;;;;;;;5128618;27;10422;-68
2022/04/25 15:44:51;;;;;;;;;6.50;3.25;;;;;;;;5154827;27;234158;-68
2022/04/25 15:47:16;;;;;;;;;3.00;3.00;;;;;;;;5165274;27;20589;-67
2022/04/25 15:49:42;;;;;;;;;3.00;3.00;;;;;;;;5167358;27;11483;-68
2022/04/25 15:52:07;;;;;;;;;3.50;3.50;;;;;;;;5165387;27;8821;-68
2022/04/25 16:00:03;;;;;;;;;2.75;2.25;;;;;;;;5167299;27;13521;-67
2022/04/25 16:02:28;;;;;;;;;4.00;3.00;;;;;;;;5146647;27;11462;-69
2022/04/25 16:04:54;;;;;;;;;4.00;3.00;;;;;;;;5167103;27;12032;-68
2022/04/25 16:07:20;;;;;;;;;3.75;3.00;;;;;;;;5159690;27;8802;-70
2022/04/25 16:09:46;;;;;;;;;2.50;2.00;;;;;;;;5154978;27;9089;-68
2022/04/25 16:12:11;;;;;;;;;4.00;3.00;;;;;;;;5156120;27;12116;-66
2022/04/25 16:14:36;;;;;;;;;4.00;2.00;;;;;;;;5165604;27;10439;-68
2022/04/25 16:17:03;;;;;;;;;2.50;2.50;;;;;;;;5177803;27;8776;-69
2022/04/25 16:19:28;;;;;;;;;4.00;2.75;;;;;;;;5177330;27;11891;-67
2022/04/25 16:21:55;;;;;;;;;5.00;2.00;;;;;;;;5177512;27;11490;-67
2022/04/25 16:24:20;;;;;;;;;4.25;3.75;;;;;;;;5178341;27;11597;-68
2022/04/25 16:26:45;;;;;;;;;3.00;2.75;;;;;;;;5158549;27;12218;-66
2022/04/25 16:29:11;;;;;;;;;5.00;3.00;;;;;;;;5177197;27;10326;-69
2022/04/25 16:31:37;;;;;;;;;2.00;2.00;;;;;;;;5178068;27;11555;-69
2022/04/25 16:34:02;;;;;;;;;3.75;3.00;;;;;;;;5177537;27;11457;-67
2022/04/25 16:36:28;;;;;;;;;4.75;3.00;;;;;;;;5171814;27;10488;-68
2022/04/25 16:38:53;;;;;;;;;5.25;4.00;;;;;;;;5178121;27;8775;-70
2022/04/25 16:41:18;;;;;;;;;6.00;4.00;;;;;;;;5166805;27;9688;-70
2022/04/25 16:43:44;;;;;;;;;5.00;3.00;;;;;;;;5164839;27;9512;-69
2022/04/25 16:46:09;;;;;;;;;5.50;5.50;;;;;;;;5147628;27;10829;-69
2022/04/25 16:48:35;;;;;;;;;6.00;5.00;;;;;;;;5170357;27;10347;-69
2022/04/25 16:51:00;;;;;;;;;7.00;4.00;;;;;;;;5166685;27;11454;-69
2022/04/25 16:53:26;;;;;;;;;3.50;2.25;;;;;;;;5165161;27;8907;-69
2022/04/25 16:55:51;;;;;;;;;3.00;3.00;;;;;;;;5153848;27;11362;-70
2022/04/25 16:58:17;;;;;;;;;6.00;4.00;;;;;;;;5152235;27;10505;-70
2022/04/25 17:00:42;;;;;;;;;6.75;5.50;;;;;;;;5151079;27;9867;-68
2022/04/25 17:03:07;;;;;;;;;4.50;4.50;;;;;;;;5150094;27;10259;-68
2022/04/25 17:05:32;;;;;;;;;6.50;4.00;;;;;;;;5152093;27;10453;-68
2022/04/25 17:07:58;;;;;;;;;8.00;4.00;;;;;;;;5150348;27;11355;-68
2022/04/25 17:10:23;;;;;;;;;9.00;4.00;;;;;;;;5153369;27;9694;-68
2022/04/25 17:12:48;;;;;;;;;4.00;3.50;;;;;;;;5151020;27;8831;-69
2022/04/25 17:15:13;;;;;;;;;8.50;8.00;;;;;;;;5152489;27;11615;-68
2022/04/25 17:17:39;;;;;;;;;4.50;3.00;;;;;;;;5131465;27;13488;-69
2022/04/25 17:20:04;;;;;;;;;4.00;4.00;;;;;;;;5153400;27;8780;-70
2022/04/25 17:22:30;;;;;;;;;7.00;4.00;;;;;;;;5151682;27;9723;-70
2022/04/25 17:24:55;;;;;;;;;4.50;4.50;;;;;;;;5151055;27;8822;-72
2022/04/25 17:27:22;;;;;;;;;5.00;2.75;;;;;;;;5149141;27;11324;-71
2022/04/25 17:29:48;;;;;;;;;4.00;4.00;;;;;;;;5140800;27;11507;-72
